createdAt,value
2019-04-26T00:00:43.281Z,1.00
2019-04-26T00:04:47.824Z,0.93
2019-04-26T00:08:58.004Z,1.07
2019-04-26T00:13:31.112Z,0.60
2019-04-26T00:17:39.835Z,0.80
2019-04-26T00:21:44.740Z,0.98
2019-04-26T00:25:49.731Z,0.98
2019-04-26T00:29:54.235Z,1.00
2019-04-26T00:33:58.787Z,1.20
2019-04-26T00:38:03.362Z,1.10
2019-04-26T00:42:08.017Z,0.90
2019-04-26T00:46:14.669Z,0.95
2019-04-26T00:50:19.687Z,1.00
2019-04-26T00:54:26.022Z,1.20
2019-04-26T00:58:33.660Z,1.47
2019-04-26T01:02:43.578Z,0.90
2019-04-26T01:31:18.520Z,0.87
2019-04-26T01:35:24.175Z,0.88
2019-04-26T01:39:29.007Z,0.80
2019-04-26T01:43:48.865Z,1.00
2019-04-26T01:47:56.567Z,1.00
2019-04-26T01:52:08.794Z,1.00
2019-04-26T01:56:14.448Z,1.20
2019-04-26T02:00:41.047Z,1.12
2019-04-26T02:04:48.437Z,0.82
2019-04-26T02:08:53.117Z,0.82
2019-04-26T02:12:58.497Z,0.93
2019-04-26T02:17:03.576Z,1.00
2019-04-26T02:21:34.283Z,1.20
2019-04-26T02:25:38.890Z,1.02
2019-04-26T02:29:43.428Z,1.00
2019-04-26T02:33:48.435Z,1.30
2019-04-26T02:37:53.232Z,1.27
2019-04-26T02:42:02.572Z,1.45
2019-04-26T02:46:16.917Z,1.30
2019-04-26T02:50:35.340Z,1.30
2019-04-26T02:54:52.864Z,1.22
2019-04-26T02:59:37.719Z,1.30
2019-04-26T03:03:40.968Z,1.50
2019-04-26T03:08:07.815Z,1.30
2019-04-26T03:12:15.750Z,1.37
2019-04-26T03:16:31.398Z,1.37
2019-04-26T03:20:40.343Z,1.50
2019-04-26T03:25:07.411Z,1.65
2019-04-26T03:29:39.590Z,1.50
2019-04-26T03:34:20.833Z,1.40
2019-04-26T03:38:43.876Z,1.82
2019-04-26T03:43:02.517Z,1.60
2019-04-26T03:47:11.113Z,1.77
2019-04-26T03:51:26.130Z,1.55
2019-04-26T03:56:07.446Z,1.67
2019-04-26T04:00:47.831Z,1.20
2019-04-26T04:05:05.597Z,1.80
2019-04-26T04:09:11.076Z,2.17
2019-04-26T04:13:51.462Z,2.22
2019-04-26T04:18:05.193Z,2.10
2019-04-26T04:22:13.256Z,2.33
2019-04-26T04:26:23.297Z,3.15
2019-04-26T04:30:45.887Z,4.00
2019-04-26T04:34:53.936Z,4.20
2019-04-26T04:39:34.857Z,4.60
2019-04-26T04:43:50.909Z,4.73
2019-04-26T04:48:23.457Z,5.43
2019-04-26T04:52:34.812Z,5.25
2019-04-26T04:57:32.569Z,5.72
2019-04-26T05:02:31.502Z,5.53
2019-04-26T05:07:27.944Z,6.08
2019-04-26T05:11:56.657Z,5.92
2019-04-26T05:16:39.379Z,6.20
2019-04-26T05:21:36.945Z,13.55
2019-04-26T05:27:02.289Z,7.47
2019-04-26T05:31:31.653Z,7.83
2019-04-26T05:36:18.096Z,7.20
2019-04-26T05:41:11.680Z,7.27
2019-04-26T05:46:15.000Z,7.53
2019-04-26T05:50:52.109Z,7.00
2019-04-26T05:55:53.936Z,7.58
2019-04-26T06:00:30.169Z,7.78
2019-04-26T06:05:19.639Z,8.48
2019-04-26T06:10:30.280Z,10.03
2019-04-26T06:14:54.706Z,9.80
2019-04-26T06:19:17.503Z,10.53
2019-04-26T06:24:18.042Z,11.33
2019-04-26T06:28:46.094Z,11.15
2019-04-26T06:33:31.520Z,12.07
2019-04-26T06:37:48.488Z,12.20
2019-04-26T06:42:34.852Z,12.55
2019-04-26T06:47:02.541Z,12.55
2019-04-26T06:51:24.252Z,12.30
2019-04-26T06:55:37.658Z,12.85
2019-04-26T07:00:00.770Z,12.93
2019-04-26T07:04:26.501Z,13.17
2019-04-26T07:09:08.566Z,12.33
2019-04-26T07:13:50.276Z,12.13
2019-04-26T07:18:13.489Z,10.03
2019-04-26T07:22:44.012Z,9.80
2019-04-26T07:27:16.684Z,8.68
2019-04-26T07:31:32.321Z,14.07
2019-04-26T07:36:17.220Z,10.08
2019-04-26T07:41:03.044Z,7.70
2019-04-26T07:45:44.540Z,7.22
2019-04-26T07:50:26.384Z,8.85
2019-04-26T07:55:00.747Z,11.80
2019-04-26T07:59:41.926Z,10.08
2019-04-26T08:03:58.088Z,10.28
2019-04-26T08:08:06.894Z,10.90
2019-04-26T08:12:14.456Z,11.00
2019-04-26T08:16:29.811Z,11.48
2019-04-26T08:20:48.387Z,11.93
2019-04-26T08:24:55.921Z,11.50
2019-04-26T08:29:03.596Z,11.70
2019-04-26T08:33:11.987Z,12.40
2019-04-26T08:37:25.856Z,12.23
2019-04-26T08:41:30.952Z,12.45
2019-04-26T08:46:02.903Z,12.55
2019-04-26T08:50:18.273Z,11.48
2019-04-26T08:54:28.416Z,11.70
2019-04-26T08:58:36.452Z,11.03
2019-04-26T09:03:11.644Z,10.90
2019-04-26T09:07:18.764Z,11.05
2019-04-26T09:11:30.171Z,10.80
2019-04-26T09:16:21.858Z,10.00
2019-04-26T09:20:29.472Z,9.15
2019-04-26T09:24:46.068Z,8.50
2019-04-26T09:29:04.213Z,8.33
2019-04-26T09:33:17.063Z,7.37
2019-04-26T09:37:21.720Z,7.27
2019-04-26T09:41:30.738Z,6.55
2019-04-26T09:45:57.483Z,6.40
2019-04-26T09:50:15.441Z,6.30
2019-04-26T09:54:26.612Z,5.95
2019-04-26T09:58:32.225Z,5.28
2019-04-26T10:02:36.833Z,6.05
2019-04-26T10:06:41.452Z,5.60
2019-04-26T10:10:46.010Z,5.50
2019-04-26T10:15:14.109Z,4.12
2019-04-26T10:19:31.733Z,3.83
2019-04-26T10:23:36.783Z,3.22
2019-04-26T10:27:42.524Z,3.20
2019-04-26T10:31:47.572Z,3.98
2019-04-26T10:35:56.782Z,4.50
2019-04-26T10:40:00.126Z,4.92
2019-04-26T10:44:04.683Z,5.20
2019-04-26T10:48:09.535Z,6.87
2019-04-26T10:52:36.600Z,6.40
2019-04-26T10:56:55.036Z,5.70
2019-04-26T11:01:00.968Z,5.87
2019-04-26T11:05:06.176Z,4.83
2019-04-26T11:09:10.729Z,3.35
2019-04-26T11:13:15.284Z,2.60
2019-04-26T11:17:19.933Z,2.70
2019-04-26T11:21:24.488Z,3.25
2019-04-26T11:25:29.557Z,3.00
2019-04-26T11:29:34.211Z,2.80
2019-04-26T11:33:44.614Z,2.70
2019-04-26T11:37:46.408Z,2.93
2019-04-26T11:41:51.097Z,2.50
2019-04-26T11:46:04.163Z,2.60
2019-04-26T11:50:01.882Z,2.50
2019-04-26T11:54:06.424Z,3.50
2019-04-26T11:58:10.977Z,2.70
2019-04-26T12:02:16.112Z,2.60
2019-04-26T12:06:43.148Z,2.80
2019-04-26T12:10:47.709Z,3.50
2019-04-26T12:14:52.276Z,5.05
2019-04-26T12:18:56.829Z,4.03
2019-04-26T12:23:01.401Z,4.60
2019-04-26T12:27:06.348Z,4.07
2019-04-26T12:31:14.984Z,4.55
2019-04-26T12:35:18.806Z,4.20
2019-04-26T12:39:23.475Z,4.80
2019-04-26T12:43:28.029Z,4.87
2019-04-26T12:47:45.392Z,4.65
2019-04-26T12:51:52.130Z,4.70
2019-04-26T12:55:58.237Z,4.72
2019-04-26T13:00:03.670Z,5.10
2019-04-26T13:04:08.388Z,5.12
2019-04-26T13:08:13.182Z,5.13
2019-04-26T13:12:29.821Z,5.30
2019-04-26T13:16:52.672Z,5.57
2019-04-26T13:20:58.554Z,5.80
2019-04-26T13:25:03.469Z,5.67
2019-04-26T13:29:08.020Z,6.00
2019-04-26T13:33:12.753Z,6.47
2019-04-26T13:37:17.305Z,6.37
2019-04-26T13:41:21.899Z,6.65
2019-04-26T13:45:53.758Z,6.83
2019-04-26T13:50:22.439Z,6.87
2019-04-26T13:54:26.447Z,13.35
2019-04-26T13:58:30.990Z,7.50
2019-04-26T14:02:35.611Z,6.97
2019-04-26T14:06:40.848Z,7.00
2019-04-26T14:10:49.351Z,7.28
2019-04-26T14:14:51.685Z,10.03
2019-04-26T14:18:56.272Z,8.98
2019-04-26T14:23:11.385Z,8.10
2019-04-26T14:27:16.935Z,8.70
2019-04-26T14:31:21.517Z,8.38
2019-04-26T14:35:26.057Z,8.67
2019-04-26T14:39:43.036Z,9.23
2019-04-26T14:43:40.925Z,8.60
2019-04-26T14:47:47.574Z,8.53
2019-04-26T14:51:51.330Z,9.30
2019-04-26T14:55:55.684Z,8.93
2019-04-26T15:00:00.650Z,9.07
2019-04-26T15:06:03.041Z,9.77
2019-04-26T15:10:11.023Z,9.23
2019-04-26T15:14:19.418Z,9.75
2019-04-26T15:18:20.322Z,9.48
2019-04-26T15:22:24.932Z,10.07
2019-04-26T15:26:30.145Z,10.63
2019-04-26T15:30:43.402Z,13.32
2019-04-26T15:34:41.152Z,14.80
2019-04-26T15:38:47.290Z,12.85
2019-04-26T15:43:02.980Z,20.65
2019-04-26T15:47:24.177Z,16.17
2019-04-26T15:51:30.299Z,17.30
2019-04-26T15:55:39.960Z,15.90
2019-04-26T15:59:42.892Z,13.30
2019-04-26T16:03:47.389Z,15.13
2019-04-26T16:07:52.990Z,15.53
2019-04-26T16:11:57.648Z,17.37
2019-04-26T16:16:03.758Z,16.12
2019-04-26T16:20:08.636Z,17.35
2019-04-26T16:24:13.251Z,18.77
2019-04-26T16:28:44.352Z,18.17
2019-04-26T16:33:03.034Z,19.00
2019-04-26T16:37:09.770Z,72.70
2019-04-26T16:41:13.934Z,63.53
2019-04-26T16:45:18.523Z,54.15
2019-04-26T16:49:23.387Z,30.45
2019-04-26T16:53:43.613Z,22.93
2019-04-26T16:57:34.360Z,23.85
2019-04-26T17:01:43.509Z,22.30
2019-04-26T17:05:48.517Z,22.80
2019-04-26T17:09:57.344Z,22.52
2019-04-26T17:14:00.261Z,23.85
2019-04-26T17:18:03.912Z,24.32
2019-04-26T17:22:19.267Z,23.95
2019-04-26T17:26:46.336Z,23.43
2019-04-26T17:30:50.921Z,25.15
2019-04-26T17:34:55.519Z,24.85
2019-04-26T17:39:00.629Z,26.37
2019-04-26T17:43:09.195Z,27.82
2019-04-26T17:47:11.573Z,26.33
2019-04-26T17:51:18.823Z,27.43
2019-04-26T17:55:22.418Z,28.23
2019-04-26T17:59:33.708Z,27.45
2019-04-26T18:03:33.281Z,29.32
2019-04-26T18:07:43.526Z,29.67
2019-04-26T18:11:44.107Z,32.73
2019-04-26T18:15:48.968Z,33.70
2019-04-26T18:20:10.206Z,34.97
2019-04-26T18:24:14.912Z,35.50
2019-04-26T18:28:19.497Z,35.05
2019-04-26T18:32:24.455Z,38.50
2019-04-26T18:36:32.035Z,37.83
2019-04-26T18:40:56.447Z,36.33
2019-04-26T18:44:47.558Z,38.90
2019-04-26T18:48:47.664Z,39.03
2019-04-26T18:53:00.933Z,40.73
2019-04-26T18:57:05.543Z,38.50
2019-04-26T19:01:13.445Z,40.53
2019-04-26T19:05:19.512Z,40.53
2019-04-26T19:09:26.518Z,41.00
2019-04-26T19:13:38.783Z,41.68
2019-04-26T19:17:51.695Z,42.73
2019-04-26T19:22:01.564Z,42.48
2019-04-26T19:26:09.390Z,45.27
2019-04-26T19:30:14.515Z,44.13
2019-04-26T19:34:19.052Z,43.97
2019-04-26T19:38:23.769Z,45.10
2019-04-26T19:42:31.016Z,44.27
2019-04-26T19:46:51.916Z,45.07
2019-04-26T19:51:27.808Z,43.68
2019-04-26T19:55:36.862Z,43.75
2019-04-26T19:59:42.312Z,42.30
2019-04-26T20:03:51.107Z,41.77
2019-04-26T20:07:53.341Z,40.67
2019-04-26T20:11:59.293Z,40.73
2019-04-26T20:16:06.057Z,42.17
2019-04-26T20:20:19.285Z,41.00
2019-04-26T20:24:18.278Z,41.05
2019-04-26T20:28:23.045Z,41.00
2019-04-26T20:32:34.217Z,40.83
2019-04-26T20:36:41.431Z,40.92
2019-04-26T20:40:47.397Z,40.65
2019-04-26T20:44:53.518Z,40.20
2019-04-26T20:48:57.454Z,41.18
2019-04-26T20:53:02.336Z,41.23
2019-04-26T20:57:07.163Z,40.60
2019-04-26T21:01:14.032Z,39.48
2019-04-26T21:05:18.357Z,41.68
2019-04-26T21:09:23.516Z,39.78
2019-04-26T21:13:30.901Z,40.70
2019-04-26T21:17:34.389Z,39.73
2019-04-26T21:21:41.928Z,40.15
2019-04-26T21:26:03.028Z,38.90
2019-04-26T21:30:38.482Z,38.83
2019-04-26T21:34:44.950Z,40.98
2019-04-26T21:38:53.021Z,40.10
2019-04-26T21:42:59.545Z,38.70
2019-04-26T21:47:03.921Z,39.40
2019-04-26T21:51:12.627Z,39.55
2019-04-26T21:55:16.645Z,40.17
2019-04-26T21:59:20.926Z,39.75
2019-04-26T22:03:25.638Z,40.10
2019-04-26T22:07:30.229Z,39.92
2019-04-26T22:11:35.205Z,40.58
2019-04-26T22:15:56.416Z,39.73
2019-04-26T22:20:18.772Z,41.02
2019-04-26T22:24:35.313Z,39.85
2019-04-26T22:28:39.882Z,40.63
2019-04-26T22:32:44.492Z,39.20
2019-04-26T22:36:49.069Z,38.73
2019-04-26T22:40:56.115Z,39.10
2019-04-26T22:45:30.801Z,39.40
2019-04-26T22:49:41.841Z,39.63
2019-04-26T22:53:43.298Z,39.75
2019-04-26T22:57:49.599Z,40.23
2019-04-26T23:01:54.287Z,38.70
2019-04-26T23:05:58.834Z,38.92
2019-04-26T23:10:04.997Z,39.63
2019-04-26T23:14:40.461Z,39.98
2019-04-26T23:19:07.207Z,40.05
2019-04-26T23:23:13.395Z,38.23
2019-04-26T23:27:20.517Z,41.08
2019-04-26T23:31:24.443Z,40.08
2019-04-26T23:35:29.003Z,39.83
2019-04-26T23:39:33.568Z,40.78
2019-04-26T23:43:38.193Z,37.77
2019-04-26T23:47:43.827Z,37.38
2019-04-26T23:51:48.404Z,37.63
2019-04-26T23:55:52.981Z,36.88
